Clinton Township, MI (48036)

3:54 PM EDT on August 18, 2019 (GMT -0400)
Moravian and Millar | | Change Station

Elev 620 ft 42.58 °N, 82.93 °W | Updated 18 seconds ago

Mostly Cloudy
Mostly Cloudy
84.4 °F
Feels Like 88 °F
N
4
Wind Variable Wind from South
Gusts 4.0 mph

Today
High -- | Low -- °F
--% Chance of Precip.
Yesterday
High -- | Low -- °F
Precip. -- in
Pressure 29.92 in
Visibility 2.0 miles
Clouds Mostly Cloudy 2100 ft
Overcast 4900 ft
Heat Index 88 °F
Dew Point 68 °F
Humidity 59%
Rainfall 0.05 in
Snow Depth Not available.
6:41 AM 8:28 PM
Waning Gibbous, 90% visible
SPECI KMTC 181752Z COR 24022G37KT 220V280 2SM +TSRA BKN021 OVC049 27/22 A2991 RMK AO2A OCNL LTGICCG W-NW TSB47 TS 2W-2NW MOV NE PRESRR SLP130 $ COR 1806
Pressure 29.92 in
Visibility 2.0 miles
Clouds Mostly Cloudy 2100 ft
Overcast 4900 ft
Heat Index 88 °F
Dew Point 68 °F
Humidity 59%
Rainfall 0.05 in
Snow Depth Not available.
6:41 AM 8:28 PM
Waning Gibbous, 90% visible
SPECI KMTC 181752Z COR 24022G37KT 220V280 2SM +TSRA BKN021 OVC049 27/22 A2991 RMK AO2A OCNL LTGICCG W-NW TSB47 TS 2W-2NW MOV NE PRESRR SLP130 $ COR 1806

Get Severe Weather Alerts

Thanks for signing up!

Be on the lookout for a verification email in your inbox.

You'll start receiving the daily forecast at 6 AM.

×

10-Day Weather Forecast

Almanac

Astronomy

Aug. 18, 2019 Rise Set
Actual Time
Civil Twilight
Nautical Twilight
Astronomical Twilight
Moon
Length of Visible Light
Length of Day
Tomorrow will be .
, % of the Moon is Illuminated

Today's Extremes

State Highs State Lows

Community

WunderPhotos

Category 6

Welcome to Category 6. This is the collective home for Weather Underground's featured writeups by Dr. Jeff Masters (right), Bob Henson (left), Chris Burt, and other regular contributors.

Nearby

Air Quality

  Air Quality AQ Index Pollutant
Not available.

Snow Depth

Station Depth Elevation

Earthquake Activity

City Distance Mag. Time & Date
Minimum magnitude displayed is 2.5.

Coastal Water Temperatures

Place Temperature

Stations

Nearby Weather Stations

Station Location Temp. Windchill Dew Point Humidity Wind Precip. Elev Updated Type
                   

Watches & Warnings

There are currently no watches in effect.